sensor_id;sensor_type;location;lat;lon;timestamp;P1;durP1;ratioP1;P2;durP2;ratioP2
37309;SDS011;23195;47.744;7.358;2022-12-31T00:02:38;1.43;;;0.90;;
37309;SDS011;23195;47.744;7.358;2022-12-31T00:05:30;1.20;;;0.80;;
37309;SDS011;23195;47.744;7.358;2022-12-31T00:08:09;1.50;;;0.70;;
37309;SDS011;23195;47.744;7.358;2022-12-31T00:10:44;1.97;;;0.60;;
37309;SDS011;23195;47.744;7.358;2022-12-31T00:13:15;0.87;;;0.60;;
37309;SDS011;23195;47.744;7.358;2022-12-31T00:16:03;1.00;;;0.60;;
37309;SDS011;23195;47.744;7.358;2022-12-31T00:22:03;1.03;;;0.50;;
37309;SDS011;23195;47.744;7.358;2022-12-31T00:24:41;1.07;;;0.60;;
37309;SDS011;23195;47.744;7.358;2022-12-31T00:27:27;1.23;;;0.63;;
37309;SDS011;23195;47.744;7.358;2022-12-31T00:30:52;1.37;;;0.60;;
37309;SDS011;23195;47.744;7.358;2022-12-31T00:33:30;1.20;;;0.50;;
37309;SDS011;23195;47.744;7.358;2022-12-31T00:38:57;0.87;;;0.50;;
37309;SDS011;23195;47.744;7.358;2022-12-31T00:44:36;0.63;;;0.60;;
37309;SDS011;23195;47.744;7.358;2022-12-31T00:53:25;3.60;;;0.80;;
37309;SDS011;23195;47.744;7.358;2022-12-31T00:56:19;0.80;;;0.60;;
37309;SDS011;23195;47.744;7.358;2022-12-31T01:05:16;1.20;;;0.60;;
37309;SDS011;23195;47.744;7.358;2022-12-31T01:07:59;1.20;;;0.73;;
37309;SDS011;23195;47.744;7.358;2022-12-31T01:10:46;2.17;;;0.70;;
37309;SDS011;23195;47.744;7.358;2022-12-31T01:16:35;1.47;;;0.40;;
37309;SDS011;23195;47.744;7.358;2022-12-31T01:19:32;1.90;;;0.63;;
37309;SDS011;23195;47.744;7.358;2022-12-31T01:22:16;0.80;;;0.80;;
37309;SDS011;23195;47.744;7.358;2022-12-31T01:27:52;0.73;;;0.60;;
37309;SDS011;23195;47.744;7.358;2022-12-31T01:30:40;3.13;;;0.80;;
37309;SDS011;23195;47.744;7.358;2022-12-31T01:33:47;1.20;;;0.80;;
37309;SDS011;23195;47.744;7.358;2022-12-31T01:36:36;1.13;;;0.60;;
37309;SDS011;23195;47.744;7.358;2022-12-31T01:39:18;2.00;;;0.80;;
37309;SDS011;23195;47.744;7.358;2022-12-31T01:41:55;1.43;;;1.00;;
37309;SDS011;23195;47.744;7.358;2022-12-31T01:47:22;0.93;;;0.83;;
37309;SDS011;23195;47.744;7.358;2022-12-31T01:50:28;0.83;;;0.80;;
37309;SDS011;23195;47.744;7.358;2022-12-31T01:53:11;0.90;;;0.80;;
37309;SDS011;23195;47.744;7.358;2022-12-31T01:56:20;1.57;;;0.70;;
37309;SDS011;23195;47.744;7.358;2022-12-31T02:02:09;2.93;;;1.20;;
37309;SDS011;23195;47.744;7.358;2022-12-31T02:04:49;1.50;;;1.10;;
37309;SDS011;23195;47.744;7.358;2022-12-31T02:07:27;2.17;;;1.20;;
37309;SDS011;23195;47.744;7.358;2022-12-31T02:10:14;4.77;;;2.10;;
37309;SDS011;23195;47.744;7.358;2022-12-31T02:16:02;2.03;;;1.07;;
37309;SDS011;23195;47.744;7.358;2022-12-31T02:18:55;3.90;;;1.70;;
37309;SDS011;23195;47.744;7.358;2022-12-31T02:22:14;1.97;;;1.33;;
37309;SDS011;23195;47.744;7.358;2022-12-31T02:31:45;3.40;;;1.70;;
37309;SDS011;23195;47.744;7.358;2022-12-31T02:37:47;3.33;;;2.07;;
37309;SDS011;23195;47.744;7.358;2022-12-31T02:40:36;2.27;;;1.30;;
37309;SDS011;23195;47.744;7.358;2022-12-31T02:46:24;2.33;;;1.40;;
37309;SDS011;23195;47.744;7.358;2022-12-31T03:01:34;1.30;;;1.10;;
37309;SDS011;23195;47.744;7.358;2022-12-31T03:04:57;1.00;;;0.90;;
37309;SDS011;23195;47.744;7.358;2022-12-31T03:07:42;1.37;;;1.00;;
37309;SDS011;23195;47.744;7.358;2022-12-31T03:10:29;3.20;;;0.93;;
37309;SDS011;23195;47.744;7.358;2022-12-31T03:13:28;0.93;;;0.80;;
37309;SDS011;23195;47.744;7.358;2022-12-31T03:16:07;1.30;;;1.10;;
37309;SDS011;23195;47.744;7.358;2022-12-31T03:21:59;2.07;;;0.93;;
37309;SDS011;23195;47.744;7.358;2022-12-31T03:24:49;2.67;;;1.10;;
37309;SDS011;23195;47.744;7.358;2022-12-31T03:27:53;1.93;;;1.27;;
37309;SDS011;23195;47.744;7.358;2022-12-31T03:30:35;1.67;;;1.10;;
37309;SDS011;23195;47.744;7.358;2022-12-31T03:33:29;1.00;;;0.90;;
37309;SDS011;23195;47.744;7.358;2022-12-31T03:36:26;1.73;;;1.13;;
37309;SDS011;23195;47.744;7.358;2022-12-31T03:39:27;1.07;;;0.97;;
37309;SDS011;23195;47.744;7.358;2022-12-31T03:58:42;1.20;;;1.10;;
37309;SDS011;23195;47.744;7.358;2022-12-31T04:01:27;1.23;;;1.00;;
37309;SDS011;23195;47.744;7.358;2022-12-31T04:04:14;2.50;;;1.40;;
37309;SDS011;23195;47.744;7.358;2022-12-31T04:06:52;3.97;;;1.00;;
37309;SDS011;23195;47.744;7.358;2022-12-31T04:12:29;1.70;;;0.87;;
37309;SDS011;23195;47.744;7.358;2022-12-31T04:18:20;1.40;;;0.70;;
37309;SDS011;23195;47.744;7.358;2022-12-31T04:21:38;2.80;;;1.00;;
37309;SDS011;23195;47.744;7.358;2022-12-31T04:24:20;1.20;;;1.03;;
37309;SDS011;23195;47.744;7.358;2022-12-31T04:26:51;2.67;;;1.10;;
37309;SDS011;23195;47.744;7.358;2022-12-31T04:29:57;2.20;;;1.13;;
37309;SDS011;23195;47.744;7.358;2022-12-31T04:32:35;2.13;;;1.30;;
37309;SDS011;23195;47.744;7.358;2022-12-31T04:35:07;3.10;;;1.17;;
37309;SDS011;23195;47.744;7.358;2022-12-31T04:38:10;1.73;;;1.17;;
37309;SDS011;23195;47.744;7.358;2022-12-31T04:40:55;3.27;;;1.60;;
37309;SDS011;23195;47.744;7.358;2022-12-31T04:43:55;5.83;;;2.00;;
37309;SDS011;23195;47.744;7.358;2022-12-31T04:55:59;3.33;;;2.13;;
37309;SDS011;23195;47.744;7.358;2022-12-31T05:01:52;1.90;;;1.20;;
37309;SDS011;23195;47.744;7.358;2022-12-31T05:05:00;2.00;;;1.30;;
37309;SDS011;23195;47.744;7.358;2022-12-31T05:07:56;1.57;;;1.30;;
37309;SDS011;23195;47.744;7.358;2022-12-31T05:13:57;2.30;;;1.27;;
37309;SDS011;23195;47.744;7.358;2022-12-31T05:16:44;2.13;;;1.90;;
37309;SDS011;23195;47.744;7.358;2022-12-31T05:19:30;4.03;;;2.20;;
37309;SDS011;23195;47.744;7.358;2022-12-31T05:21:58;3.50;;;1.77;;
37309;SDS011;23195;47.744;7.358;2022-12-31T05:28:06;3.07;;;1.40;;
37309;SDS011;23195;47.744;7.358;2022-12-31T05:34:08;1.10;;;1.00;;
37309;SDS011;23195;47.744;7.358;2022-12-31T05:36:49;1.30;;;0.90;;
37309;SDS011;23195;47.744;7.358;2022-12-31T05:39:40;1.67;;;0.97;;
37309;SDS011;23195;47.744;7.358;2022-12-31T05:42:16;2.43;;;0.90;;
37309;SDS011;23195;47.744;7.358;2022-12-31T05:45:10;1.37;;;1.17;;
37309;SDS011;23195;47.744;7.358;2022-12-31T05:51:17;2.93;;;1.20;;
37309;SDS011;23195;47.744;7.358;2022-12-31T05:54:08;1.53;;;1.03;;
37309;SDS011;23195;47.744;7.358;2022-12-31T05:59:55;2.50;;;1.10;;
37309;SDS011;23195;47.744;7.358;2022-12-31T06:02:36;1.87;;;1.00;;
37309;SDS011;23195;47.744;7.358;2022-12-31T06:05:13;0.90;;;0.90;;
37309;SDS011;23195;47.744;7.358;2022-12-31T06:07:54;2.27;;;1.30;;
37309;SDS011;23195;47.744;7.358;2022-12-31T06:14:07;1.47;;;1.30;;
37309;SDS011;23195;47.744;7.358;2022-12-31T06:17:18;1.57;;;1.30;;
37309;SDS011;23195;47.744;7.358;2022-12-31T06:23:09;7.50;;;4.10;;
37309;SDS011;23195;47.744;7.358;2022-12-31T06:29:39;4.47;;;2.57;;
37309;SDS011;23195;47.744;7.358;2022-12-31T06:32:17;2.43;;;1.90;;
37309;SDS011;23195;47.744;7.358;2022-12-31T06:35:08;3.90;;;1.60;;
37309;SDS011;23195;47.744;7.358;2022-12-31T06:37:37;2.57;;;1.50;;
37309;SDS011;23195;47.744;7.358;2022-12-31T06:40:21;6.10;;;2.47;;
37309;SDS011;23195;47.744;7.358;2022-12-31T06:42:54;4.87;;;2.93;;
37309;SDS011;23195;47.744;7.358;2022-12-31T06:45:24;6.70;;;3.33;;
37309;SDS011;23195;47.744;7.358;2022-12-31T06:48:09;6.20;;;3.10;;
37309;SDS011;23195;47.744;7.358;2022-12-31T06:50:54;5.60;;;2.93;;
37309;SDS011;23195;47.744;7.358;2022-12-31T06:53:31;7.03;;;2.37;;
37309;SDS011;23195;47.744;7.358;2022-12-31T06:56:17;5.07;;;2.37;;
37309;SDS011;23195;47.744;7.358;2022-12-31T06:58:51;3.47;;;2.23;;
37309;SDS011;23195;47.744;7.358;2022-12-31T07:13:39;2.13;;;1.90;;
37309;SDS011;23195;47.744;7.358;2022-12-31T07:22:39;3.00;;;2.27;;
37309;SDS011;23195;47.744;7.358;2022-12-31T07:25:24;3.40;;;2.40;;
37309;SDS011;23195;47.744;7.358;2022-12-31T07:28:14;3.13;;;2.10;;
37309;SDS011;23195;47.744;7.358;2022-12-31T07:33:45;6.40;;;3.77;;
37309;SDS011;23195;47.744;7.358;2022-12-31T07:39:45;8.03;;;4.80;;
37309;SDS011;23195;47.744;7.358;2022-12-31T07:42:55;8.57;;;5.03;;
37309;SDS011;23195;47.744;7.358;2022-12-31T07:46:21;9.83;;;4.80;;
37309;SDS011;23195;47.744;7.358;2022-12-31T07:49:00;6.27;;;3.63;;
37309;SDS011;23195;47.744;7.358;2022-12-31T07:51:36;2.03;;;1.83;;
37309;SDS011;23195;47.744;7.358;2022-12-31T07:54:13;4.37;;;1.97;;
37309;SDS011;23195;47.744;7.358;2022-12-31T07:56:53;2.97;;;2.00;;
37309;SDS011;23195;47.744;7.358;2022-12-31T07:59:39;2.80;;;1.50;;
37309;SDS011;23195;47.744;7.358;2022-12-31T08:14:18;5.17;;;2.83;;
37309;SDS011;23195;47.744;7.358;2022-12-31T08:17:03;4.27;;;2.77;;
37309;SDS011;23195;47.744;7.358;2022-12-31T08:19:39;3.97;;;3.40;;
37309;SDS011;23195;47.744;7.358;2022-12-31T08:33:51;2.80;;;2.50;;
37309;SDS011;23195;47.744;7.358;2022-12-31T08:43:11;7.20;;;2.97;;
37309;SDS011;23195;47.744;7.358;2022-12-31T08:46:12;3.13;;;2.60;;
37309;SDS011;23195;47.744;7.358;2022-12-31T08:48:57;3.70;;;2.80;;
37309;SDS011;23195;47.744;7.358;2022-12-31T08:51:41;3.53;;;2.80;;
37309;SDS011;23195;47.744;7.358;2022-12-31T08:54:18;6.23;;;3.17;;
37309;SDS011;23195;47.744;7.358;2022-12-31T09:02:47;3.03;;;2.50;;
37309;SDS011;23195;47.744;7.358;2022-12-31T09:20:03;1.43;;;1.03;;
37309;SDS011;23195;47.744;7.358;2022-12-31T09:22:51;1.53;;;0.87;;
37309;SDS011;23195;47.744;7.358;2022-12-31T09:25:28;1.80;;;1.07;;
37309;SDS011;23195;47.744;7.358;2022-12-31T09:28:17;1.03;;;0.90;;
37309;SDS011;23195;47.744;7.358;2022-12-31T09:34:11;2.70;;;1.00;;
37309;SDS011;23195;47.744;7.358;2022-12-31T09:37:18;1.17;;;0.80;;
37309;SDS011;23195;47.744;7.358;2022-12-31T09:39:52;3.90;;;1.47;;
37309;SDS011;23195;47.744;7.358;2022-12-31T09:45:34;3.10;;;1.97;;
37309;SDS011;23195;47.744;7.358;2022-12-31T09:51:43;1.77;;;1.00;;
37309;SDS011;23195;47.744;7.358;2022-12-31T09:54:31;0.90;;;0.90;;
37309;SDS011;23195;47.744;7.358;2022-12-31T10:09:54;1.83;;;0.80;;
37309;SDS011;23195;47.744;7.358;2022-12-31T10:29:57;2.50;;;1.80;;
37309;SDS011;23195;47.744;7.358;2022-12-31T10:32:37;1.50;;;1.33;;
37309;SDS011;23195;47.744;7.358;2022-12-31T10:35:41;2.60;;;1.57;;
37309;SDS011;23195;47.744;7.358;2022-12-31T10:38:42;1.60;;;1.50;;
37309;SDS011;23195;47.744;7.358;2022-12-31T10:50:36;2.53;;;1.67;;
37309;SDS011;23195;47.744;7.358;2022-12-31T10:57:12;1.63;;;1.10;;
37309;SDS011;23195;47.744;7.358;2022-12-31T11:11:30;1.60;;;1.10;;
37309;SDS011;23195;47.744;7.358;2022-12-31T11:20:23;2.60;;;1.30;;
37309;SDS011;23195;47.744;7.358;2022-12-31T11:38:20;1.67;;;1.17;;
37309;SDS011;23195;47.744;7.358;2022-12-31T11:41:15;2.63;;;1.63;;
37309;SDS011;23195;47.744;7.358;2022-12-31T11:50:16;3.40;;;1.13;;
37309;SDS011;23195;47.744;7.358;2022-12-31T11:53:16;2.20;;;0.93;;
37309;SDS011;23195;47.744;7.358;2022-12-31T11:56:08;1.53;;;0.90;;
37309;SDS011;23195;47.744;7.358;2022-12-31T11:58:54;0.80;;;0.70;;
37309;SDS011;23195;47.744;7.358;2022-12-31T12:04:18;2.40;;;0.90;;
37309;SDS011;23195;47.744;7.358;2022-12-31T12:06:55;1.10;;;1.00;;
37309;SDS011;23195;47.744;7.358;2022-12-31T12:09:34;0.97;;;0.70;;
37309;SDS011;23195;47.744;7.358;2022-12-31T12:12:13;3.07;;;0.80;;
37309;SDS011;23195;47.744;7.358;2022-12-31T12:14:42;1.17;;;0.80;;
37309;SDS011;23195;47.744;7.358;2022-12-31T12:17:17;0.80;;;0.80;;
37309;SDS011;23195;47.744;7.358;2022-12-31T12:20:15;0.97;;;0.70;;
37309;SDS011;23195;47.744;7.358;2022-12-31T12:23:11;0.90;;;0.70;;
37309;SDS011;23195;47.744;7.358;2022-12-31T12:25:59;0.90;;;0.70;;
37309;SDS011;23195;47.744;7.358;2022-12-31T12:28:47;0.70;;;0.60;;
37309;SDS011;23195;47.744;7.358;2022-12-31T12:31:38;1.23;;;0.93;;
37309;SDS011;23195;47.744;7.358;2022-12-31T12:34:20;1.30;;;1.00;;
37309;SDS011;23195;47.744;7.358;2022-12-31T12:37:06;2.77;;;0.70;;
37309;SDS011;23195;47.744;7.358;2022-12-31T12:40:00;1.03;;;0.80;;
37309;SDS011;23195;47.744;7.358;2022-12-31T12:42:52;2.37;;;1.90;;
37309;SDS011;23195;47.744;7.358;2022-12-31T12:45:22;4.87;;;3.23;;
37309;SDS011;23195;47.744;7.358;2022-12-31T12:48:06;4.30;;;2.90;;
37309;SDS011;23195;47.744;7.358;2022-12-31T12:50:49;7.40;;;4.30;;
37309;SDS011;23195;47.744;7.358;2022-12-31T12:55:57;3.50;;;2.67;;
37309;SDS011;23195;47.744;7.358;2022-12-31T12:59:44;3.03;;;1.50;;
37309;SDS011;23195;47.744;7.358;2022-12-31T13:02:26;2.97;;;1.70;;
37309;SDS011;23195;47.744;7.358;2022-12-31T13:05:16;8.97;;;3.00;;
37309;SDS011;23195;47.744;7.358;2022-12-31T13:23:12;6.43;;;3.40;;
37309;SDS011;23195;47.744;7.358;2022-12-31T13:32:01;6.93;;;4.13;;
37309;SDS011;23195;47.744;7.358;2022-12-31T13:34:47;8.27;;;5.20;;
37309;SDS011;23195;47.744;7.358;2022-12-31T13:40:23;7.47;;;4.07;;
37309;SDS011;23195;47.744;7.358;2022-12-31T13:53:35;13.53;;;7.73;;
37309;SDS011;23195;47.744;7.358;2022-12-31T14:05:31;7.00;;;4.10;;
37309;SDS011;23195;47.744;7.358;2022-12-31T14:08:10;6.30;;;3.73;;
37309;SDS011;23195;47.744;7.358;2022-12-31T14:10:58;6.07;;;3.00;;
37309;SDS011;23195;47.744;7.358;2022-12-31T14:26:01;3.43;;;2.50;;
37309;SDS011;23195;47.744;7.358;2022-12-31T14:41:05;4.83;;;4.20;;
37309;SDS011;23195;47.744;7.358;2022-12-31T14:47:06;3.27;;;2.80;;
37309;SDS011;23195;47.744;7.358;2022-12-31T14:50:09;3.80;;;2.47;;
37309;SDS011;23195;47.744;7.358;2022-12-31T14:52:49;6.70;;;6.00;;
37309;SDS011;23195;47.744;7.358;2022-12-31T14:55:21;4.50;;;3.70;;
37309;SDS011;23195;47.744;7.358;2022-12-31T14:58:28;6.97;;;3.10;;
37309;SDS011;23195;47.744;7.358;2022-12-31T15:03:57;3.60;;;1.73;;
37309;SDS011;23195;47.744;7.358;2022-12-31T15:23:36;2.73;;;2.40;;
37309;SDS011;23195;47.744;7.358;2022-12-31T15:26:21;4.17;;;3.20;;
37309;SDS011;23195;47.744;7.358;2022-12-31T15:29:04;4.27;;;2.90;;
37309;SDS011;23195;47.744;7.358;2022-12-31T15:31:45;5.87;;;3.90;;
37309;SDS011;23195;47.744;7.358;2022-12-31T15:34:29;12.93;;;8.03;;
37309;SDS011;23195;47.744;7.358;2022-12-31T15:37:28;49.17;;;25.57;;
37309;SDS011;23195;47.744;7.358;2022-12-31T15:40:22;36.53;;;19.73;;
37309;SDS011;23195;47.744;7.358;2022-12-31T15:46:22;8.97;;;5.43;;
37309;SDS011;23195;47.744;7.358;2022-12-31T15:49:07;5.80;;;4.00;;
37309;SDS011;23195;47.744;7.358;2022-12-31T15:58:33;3.90;;;3.03;;
37309;SDS011;23195;47.744;7.358;2022-12-31T16:01:46;6.93;;;3.70;;
37309;SDS011;23195;47.744;7.358;2022-12-31T16:04:28;6.27;;;4.03;;
37309;SDS011;23195;47.744;7.358;2022-12-31T16:07:10;6.83;;;3.70;;
37309;SDS011;23195;47.744;7.358;2022-12-31T16:13:22;3.80;;;3.30;;
37309;SDS011;23195;47.744;7.358;2022-12-31T16:22:27;7.00;;;4.23;;
37309;SDS011;23195;47.744;7.358;2022-12-31T16:25:31;6.93;;;4.10;;
37309;SDS011;23195;47.744;7.358;2022-12-31T16:28:02;6.17;;;4.23;;
37309;SDS011;23195;47.744;7.358;2022-12-31T16:31:04;5.57;;;4.13;;
37309;SDS011;23195;47.744;7.358;2022-12-31T16:33:49;5.30;;;4.20;;
37309;SDS011;23195;47.744;7.358;2022-12-31T16:36:36;6.00;;;4.10;;
37309;SDS011;23195;47.744;7.358;2022-12-31T16:39:33;6.33;;;4.13;;
37309;SDS011;23195;47.744;7.358;2022-12-31T16:42:13;7.50;;;4.60;;
37309;SDS011;23195;47.744;7.358;2022-12-31T16:44:55;6.83;;;4.47;;
37309;SDS011;23195;47.744;7.358;2022-12-31T16:47:55;12.17;;;5.37;;
37309;SDS011;23195;47.744;7.358;2022-12-31T16:50:47;7.90;;;4.30;;
37309;SDS011;23195;47.744;7.358;2022-12-31T16:53:36;7.13;;;5.23;;
37309;SDS011;23195;47.744;7.358;2022-12-31T17:02:41;8.30;;;5.63;;
37309;SDS011;23195;47.744;7.358;2022-12-31T17:14:49;4.87;;;4.00;;
37309;SDS011;23195;47.744;7.358;2022-12-31T17:17:26;8.57;;;5.10;;
37309;SDS011;23195;47.744;7.358;2022-12-31T17:20:26;5.53;;;4.43;;
37309;SDS011;23195;47.744;7.358;2022-12-31T17:22:55;6.63;;;4.40;;
37309;SDS011;23195;47.744;7.358;2022-12-31T17:25:39;9.93;;;4.80;;
37309;SDS011;23195;47.744;7.358;2022-12-31T17:28:36;5.33;;;4.07;;
37309;SDS011;23195;47.744;7.358;2022-12-31T17:31:39;4.70;;;3.60;;
37309;SDS011;23195;47.744;7.358;2022-12-31T17:34:37;6.17;;;3.50;;
37309;SDS011;23195;47.744;7.358;2022-12-31T17:37:31;7.03;;;3.70;;
37309;SDS011;23195;47.744;7.358;2022-12-31T17:40:02;5.93;;;3.60;;
37309;SDS011;23195;47.744;7.358;2022-12-31T17:43:20;6.13;;;4.13;;
37309;SDS011;23195;47.744;7.358;2022-12-31T17:48:35;8.07;;;5.73;;
37309;SDS011;23195;47.744;7.358;2022-12-31T17:51:29;6.87;;;4.27;;
37309;SDS011;23195;47.744;7.358;2022-12-31T17:54:28;6.80;;;4.00;;
37309;SDS011;23195;47.744;7.358;2022-12-31T17:57:01;5.83;;;3.93;;
37309;SDS011;23195;47.744;7.358;2022-12-31T17:59:27;9.60;;;4.83;;
37309;SDS011;23195;47.744;7.358;2022-12-31T18:02:02;4.77;;;3.90;;
37309;SDS011;23195;47.744;7.358;2022-12-31T18:04:47;6.23;;;4.77;;
37309;SDS011;23195;47.744;7.358;2022-12-31T18:07:23;7.07;;;4.63;;
37309;SDS011;23195;47.744;7.358;2022-12-31T18:10:11;7.53;;;5.57;;
37309;SDS011;23195;47.744;7.358;2022-12-31T18:12:54;17.90;;;9.80;;
37309;SDS011;23195;47.744;7.358;2022-12-31T18:15:30;18.03;;;10.77;;
37309;SDS011;23195;47.744;7.358;2022-12-31T18:18:16;7.33;;;5.30;;
37309;SDS011;23195;47.744;7.358;2022-12-31T18:20:46;6.93;;;3.70;;
37309;SDS011;23195;47.744;7.358;2022-12-31T18:26:22;6.20;;;5.13;;
37309;SDS011;23195;47.744;7.358;2022-12-31T18:28:51;8.20;;;5.67;;
37309;SDS011;23195;47.744;7.358;2022-12-31T18:31:27;8.83;;;5.90;;
37309;SDS011;23195;47.744;7.358;2022-12-31T18:34:11;8.30;;;5.80;;
37309;SDS011;23195;47.744;7.358;2022-12-31T18:36:50;8.60;;;6.30;;
37309;SDS011;23195;47.744;7.358;2022-12-31T18:39:44;12.60;;;9.10;;
37309;SDS011;23195;47.744;7.358;2022-12-31T18:42:22;11.70;;;8.07;;
37309;SDS011;23195;47.744;7.358;2022-12-31T18:44:53;9.57;;;7.20;;
37309;SDS011;23195;47.744;7.358;2022-12-31T18:47:31;10.73;;;7.40;;
37309;SDS011;23195;47.744;7.358;2022-12-31T18:50:11;8.53;;;4.97;;
37309;SDS011;23195;47.744;7.358;2022-12-31T18:53:01;7.53;;;5.33;;
37309;SDS011;23195;47.744;7.358;2022-12-31T18:55:43;6.80;;;5.20;;
37309;SDS011;23195;47.744;7.358;2022-12-31T19:01:02;12.27;;;8.23;;
37309;SDS011;23195;47.744;7.358;2022-12-31T19:03:28;16.50;;;11.67;;
37309;SDS011;23195;47.744;7.358;2022-12-31T19:05:57;16.67;;;11.10;;
37309;SDS011;23195;47.744;7.358;2022-12-31T19:08:26;14.67;;;9.87;;
37309;SDS011;23195;47.744;7.358;2022-12-31T19:10:52;13.17;;;8.93;;
37309;SDS011;23195;47.744;7.358;2022-12-31T19:13:20;15.73;;;8.07;;
37309;SDS011;23195;47.744;7.358;2022-12-31T19:15:51;12.43;;;6.90;;
37309;SDS011;23195;47.744;7.358;2022-12-31T19:18:17;10.70;;;6.77;;
37309;SDS011;23195;47.744;7.358;2022-12-31T19:20:44;14.47;;;7.23;;
37309;SDS011;23195;47.744;7.358;2022-12-31T19:23:19;12.13;;;6.80;;
37309;SDS011;23195;47.744;7.358;2022-12-31T19:25:46;5.37;;;4.53;;
37309;SDS011;23195;47.744;7.358;2022-12-31T19:28:18;7.00;;;4.93;;
37309;SDS011;23195;47.744;7.358;2022-12-31T19:30:52;6.03;;;4.23;;
37309;SDS011;23195;47.744;7.358;2022-12-31T19:33:18;5.60;;;4.27;;
37309;SDS011;23195;47.744;7.358;2022-12-31T19:35:43;4.07;;;3.50;;
37309;SDS011;23195;47.744;7.358;2022-12-31T19:38:20;5.53;;;4.07;;
37309;SDS011;23195;47.744;7.358;2022-12-31T19:40:48;7.37;;;4.83;;
37309;SDS011;23195;47.744;7.358;2022-12-31T19:43:15;10.97;;;5.23;;
37309;SDS011;23195;47.744;7.358;2022-12-31T19:45:43;6.63;;;4.67;;
37309;SDS011;23195;47.744;7.358;2022-12-31T19:48:12;7.53;;;4.47;;
37309;SDS011;23195;47.744;7.358;2022-12-31T19:50:41;4.70;;;3.30;;
37309;SDS011;23195;47.744;7.358;2022-12-31T19:53:13;5.47;;;3.37;;
37309;SDS011;23195;47.744;7.358;2022-12-31T19:55:43;5.20;;;3.67;;
37309;SDS011;23195;47.744;7.358;2022-12-31T19:58:20;4.73;;;3.07;;
37309;SDS011;23195;47.744;7.358;2022-12-31T20:00:50;3.33;;;2.93;;
37309;SDS011;23195;47.744;7.358;2022-12-31T20:03:17;3.93;;;2.67;;
37309;SDS011;23195;47.744;7.358;2022-12-31T20:05:43;3.40;;;2.83;;
37309;SDS011;23195;47.744;7.358;2022-12-31T20:08:10;4.10;;;2.80;;
37309;SDS011;23195;47.744;7.358;2022-12-31T20:10:37;4.43;;;2.77;;
37309;SDS011;23195;47.744;7.358;2022-12-31T20:13:03;4.33;;;3.00;;
37309;SDS011;23195;47.744;7.358;2022-12-31T20:15:29;3.27;;;2.77;;
37309;SDS011;23195;47.744;7.358;2022-12-31T20:17:56;3.80;;;3.03;;
37309;SDS011;23195;47.744;7.358;2022-12-31T20:20:22;3.93;;;3.13;;
37309;SDS011;23195;47.744;7.358;2022-12-31T20:22:49;7.83;;;3.23;;
37309;SDS011;23195;47.744;7.358;2022-12-31T20:25:15;4.83;;;3.23;;
37309;SDS011;23195;47.744;7.358;2022-12-31T20:27:40;4.60;;;3.60;;
37309;SDS011;23195;47.744;7.358;2022-12-31T20:30:09;4.43;;;3.60;;
37309;SDS011;23195;47.744;7.358;2022-12-31T20:32:36;6.57;;;3.70;;
37309;SDS011;23195;47.744;7.358;2022-12-31T20:35:02;5.20;;;3.77;;
37309;SDS011;23195;47.744;7.358;2022-12-31T20:37:34;5.73;;;3.30;;
37309;SDS011;23195;47.744;7.358;2022-12-31T20:40:10;4.87;;;3.23;;
37309;SDS011;23195;47.744;7.358;2022-12-31T20:45:43;5.13;;;3.80;;
37309;SDS011;23195;47.744;7.358;2022-12-31T20:48:17;7.43;;;4.47;;
37309;SDS011;23195;47.744;7.358;2022-12-31T20:50:43;6.83;;;4.00;;
37309;SDS011;23195;47.744;7.358;2022-12-31T20:53:19;6.53;;;4.57;;
37309;SDS011;23195;47.744;7.358;2022-12-31T20:55:49;5.80;;;4.00;;
37309;SDS011;23195;47.744;7.358;2022-12-31T20:58:15;5.37;;;3.63;;
37309;SDS011;23195;47.744;7.358;2022-12-31T21:00:46;5.07;;;4.20;;
37309;SDS011;23195;47.744;7.358;2022-12-31T21:03:13;7.13;;;4.40;;
37309;SDS011;23195;47.744;7.358;2022-12-31T21:05:48;5.30;;;3.97;;
37309;SDS011;23195;47.744;7.358;2022-12-31T21:08:18;8.07;;;5.07;;
37309;SDS011;23195;47.744;7.358;2022-12-31T21:10:47;8.00;;;4.57;;
37309;SDS011;23195;47.744;7.358;2022-12-31T21:13:14;7.63;;;5.27;;
37309;SDS011;23195;47.744;7.358;2022-12-31T21:15:46;13.57;;;8.13;;
37309;SDS011;23195;47.744;7.358;2022-12-31T21:18:17;10.57;;;7.60;;
37309;SDS011;23195;47.744;7.358;2022-12-31T21:20:51;6.70;;;4.70;;
37309;SDS011;23195;47.744;7.358;2022-12-31T21:23:17;4.53;;;3.47;;
37309;SDS011;23195;47.744;7.358;2022-12-31T21:25:48;4.67;;;3.70;;
37309;SDS011;23195;47.744;7.358;2022-12-31T21:28:17;4.83;;;3.60;;
37309;SDS011;23195;47.744;7.358;2022-12-31T21:30:45;4.17;;;3.27;;
37309;SDS011;23195;47.744;7.358;2022-12-31T21:33:11;6.97;;;3.63;;
37309;SDS011;23195;47.744;7.358;2022-12-31T21:35:37;4.20;;;2.90;;
37309;SDS011;23195;47.744;7.358;2022-12-31T21:38:03;5.93;;;3.40;;
37309;SDS011;23195;47.744;7.358;2022-12-31T21:40:31;4.37;;;3.30;;
37309;SDS011;23195;47.744;7.358;2022-12-31T21:43:02;6.17;;;3.30;;
37309;SDS011;23195;47.744;7.358;2022-12-31T21:45:30;5.20;;;3.50;;
37309;SDS011;23195;47.744;7.358;2022-12-31T21:47:58;4.10;;;3.20;;
37309;SDS011;23195;47.744;7.358;2022-12-31T21:50:46;7.67;;;3.40;;
37309;SDS011;23195;47.744;7.358;2022-12-31T21:53:16;5.83;;;3.57;;
37309;SDS011;23195;47.744;7.358;2022-12-31T21:55:43;6.53;;;3.40;;
37309;SDS011;23195;47.744;7.358;2022-12-31T21:58:27;4.30;;;3.67;;
37309;SDS011;23195;47.744;7.358;2022-12-31T22:00:56;7.93;;;3.30;;
37309;SDS011;23195;47.744;7.358;2022-12-31T22:03:47;3.90;;;2.97;;
37309;SDS011;23195;47.744;7.358;2022-12-31T22:06:19;4.07;;;3.20;;
37309;SDS011;23195;47.744;7.358;2022-12-31T22:08:51;5.00;;;3.50;;
37309;SDS011;23195;47.744;7.358;2022-12-31T22:11:28;5.33;;;3.20;;
37309;SDS011;23195;47.744;7.358;2022-12-31T22:13:54;6.33;;;3.17;;
37309;SDS011;23195;47.744;7.358;2022-12-31T22:16:20;6.37;;;3.00;;
37309;SDS011;23195;47.744;7.358;2022-12-31T22:18:46;4.23;;;3.27;;
37309;SDS011;23195;47.744;7.358;2022-12-31T22:21:13;4.70;;;2.80;;
37309;SDS011;23195;47.744;7.358;2022-12-31T22:23:41;4.20;;;2.80;;
37309;SDS011;23195;47.744;7.358;2022-12-31T22:26:08;4.60;;;3.23;;
37309;SDS011;23195;47.744;7.358;2022-12-31T22:28:40;6.03;;;3.53;;
37309;SDS011;23195;47.744;7.358;2022-12-31T22:31:14;6.50;;;3.10;;
37309;SDS011;23195;47.744;7.358;2022-12-31T22:33:42;6.67;;;3.03;;
37309;SDS011;23195;47.744;7.358;2022-12-31T22:36:12;5.90;;;3.60;;
37309;SDS011;23195;47.744;7.358;2022-12-31T22:38:44;6.67;;;4.77;;
37309;SDS011;23195;47.744;7.358;2022-12-31T22:41:11;9.53;;;4.60;;
37309;SDS011;23195;47.744;7.358;2022-12-31T22:43:40;6.87;;;4.43;;
37309;SDS011;23195;47.744;7.358;2022-12-31T22:46:07;5.60;;;3.80;;
37309;SDS011;23195;47.744;7.358;2022-12-31T22:48:35;5.17;;;3.83;;
37309;SDS011;23195;47.744;7.358;2022-12-31T22:51:02;7.00;;;3.40;;
37309;SDS011;23195;47.744;7.358;2022-12-31T22:53:28;5.53;;;4.00;;
37309;SDS011;23195;47.744;7.358;2022-12-31T22:55:54;7.37;;;5.13;;
37309;SDS011;23195;47.744;7.358;2022-12-31T22:58:20;7.30;;;5.03;;
37309;SDS011;23195;47.744;7.358;2022-12-31T23:00:47;7.90;;;4.20;;
37309;SDS011;23195;47.744;7.358;2022-12-31T23:03:13;6.63;;;4.87;;
37309;SDS011;23195;47.744;7.358;2022-12-31T23:05:40;7.63;;;5.27;;
37309;SDS011;23195;47.744;7.358;2022-12-31T23:08:06;8.20;;;6.00;;
37309;SDS011;23195;47.744;7.358;2022-12-31T23:10:32;20.20;;;12.17;;
37309;SDS011;23195;47.744;7.358;2022-12-31T23:13:17;24.83;;;15.00;;
37309;SDS011;23195;47.744;7.358;2022-12-31T23:16:02;16.77;;;10.87;;
37309;SDS011;23195;47.744;7.358;2022-12-31T23:18:46;20.87;;;13.40;;
37309;SDS011;23195;47.744;7.358;2022-12-31T23:21:30;29.07;;;18.10;;
37309;SDS011;23195;47.744;7.358;2022-12-31T23:24:15;36.83;;;21.63;;
37309;SDS011;23195;47.744;7.358;2022-12-31T23:26:42;36.40;;;18.80;;
37309;SDS011;23195;47.744;7.358;2022-12-31T23:29:16;47.23;;;28.77;;